Time;durP1;ratioP1;P1;durP2;ratioP2;P2;SDS_P1;SDS_P2;PMS_P1;PMS_P2;Temp;Humidity;BMP_temperature;BMP_pressure;BME280_temperature;BME280_humidity;BME280_pressure;Samples;Min_cycle;Max_cycle;Signal;HPM_P1;HPM_P2
2021/08/20 00:01:59;;;;;;;0.60;0.38;;;20.50;73.40;;;;;;5057916;28;20021;-77
2021/08/20 00:04:25;;;;;;;0.57;0.40;;;20.50;73.60;;;;;;5057533;28;20021;-77
2021/08/20 00:06:50;;;;;;;0.70;0.40;;;20.50;73.70;;;;;;5057537;28;20057;-77
2021/08/20 00:09:16;;;;;;;0.60;0.40;;;20.50;73.60;;;;;;5057350;28;20021;-77
2021/08/20 00:11:42;;;;;;;0.70;0.35;;;20.40;74.10;;;;;;5075423;28;20032;-76
2021/08/20 00:14:09;;;;;;;0.80;0.40;;;20.40;74.00;;;;;;5077401;28;20027;-77
2021/08/20 00:16:43;;;;;;;0.73;0.50;;;20.50;73.90;;;;;;5060041;28;20066;-76
2021/08/20 00:19:08;;;;;;;0.60;0.30;;;20.30;74.50;;;;;;5055845;28;20033;-77
2021/08/20 00:21:35;;;;;;;0.73;0.40;;;20.30;74.30;;;;;;5067062;28;20031;-77
2021/08/20 00:24:01;;;;;;;0.80;0.50;;;20.30;74.50;;;;;;5077478;28;20085;-77
2021/08/20 00:26:26;;;;;;;0.70;0.50;;;20.30;74.50;;;;;;5074283;28;20108;-76
2021/08/20 00:28:52;;;;;;;1.25;0.45;;;20.20;74.80;;;;;;5072323;28;20571;-76
2021/08/20 00:31:18;;;;;;;0.95;0.40;;;20.30;74.70;;;;;;5056870;28;20046;-77
2021/08/20 00:33:44;;;;;;;0.70;0.40;;;20.30;74.70;;;;;;5056964;28;20060;-77
2021/08/20 00:36:09;;;;;;;0.80;0.50;;;20.30;75.00;;;;;;5061031;28;20041;-77
2021/08/20 00:38:38;;;;;;;0.88;0.45;;;20.30;74.70;;;;;;5076857;28;20059;-77
2021/08/20 00:41:09;;;;;;;0.73;0.40;;;20.30;74.90;;;;;;5070254;28;20453;-77
2021/08/20 00:43:35;;;;;;;1.15;0.52;;;20.20;75.20;;;;;;5076076;28;20100;-77
2021/08/20 00:46:02;;;;;;;0.68;0.40;;;20.20;75.50;;;;;;5066261;28;20083;-76
2021/08/20 00:48:28;;;;;;;0.90;0.45;;;20.20;75.50;;;;;;5058422;28;20029;-77
2021/08/20 00:51:19;;;;;;;0.60;0.40;;;20.20;75.40;;;;;;5076658;28;20103;-76
2021/08/20 00:53:47;;;;;;;1.13;0.52;;;20.20;75.50;;;;;;5052212;28;20073;-77
2021/08/20 00:56:26;;;;;;;0.60;0.40;;;20.10;75.50;;;;;;5056648;28;20028;-77
2021/08/20 00:58:52;;;;;;;0.70;0.47;;;20.10;75.60;;;;;;5056461;28;20028;-77
2021/08/20 01:01:19;;;;;;;0.80;0.45;;;20.10;75.80;;;;;;5056279;28;20479;-77
2021/08/20 01:03:45;;;;;;;0.98;0.50;;;20.00;76.00;;;;;;5056263;28;20029;-77
2021/08/20 01:06:10;;;;;;;0.90;0.40;;;20.00;75.90;;;;;;5056303;28;20028;-77
2021/08/20 01:08:38;;;;;;;0.82;0.45;;;20.10;75.80;;;;;;5056214;28;20025;-77
2021/08/20 01:11:10;;;;;;;0.77;0.50;;;20.10;75.50;;;;;;5056119;28;20043;-77
2021/08/20 01:13:42;;;;;;;0.82;0.50;;;20.20;75.30;;;;;;5056308;28;20467;-77
2021/08/20 01:16:09;;;;;;;1.40;0.70;;;20.20;75.30;;;;;;5056295;28;20036;-77
2021/08/20 01:18:38;;;;;;;0.68;0.35;;;20.30;74.80;;;;;;5056075;28;20052;-77
2021/08/20 01:21:09;;;;;;;0.68;0.40;;;20.30;74.60;;;;;;5056265;28;20021;-77
2021/08/20 01:23:35;;;;;;;0.60;0.40;;;20.30;74.60;;;;;;5056121;28;20032;-76
2021/08/20 01:26:01;;;;;;;0.90;0.52;;;20.30;74.40;;;;;;5055828;28;20029;-77
2021/08/20 01:28:27;;;;;;;0.68;0.40;;;20.30;75.00;;;;;;5058223;28;20120;-77
2021/08/20 01:31:00;;;;;;;0.82;0.45;;;20.20;75.10;;;;;;5075826;28;20099;-76
2021/08/20 01:33:27;;;;;;;0.82;0.45;;;20.20;74.80;;;;;;5074365;28;20081;-76
2021/08/20 01:35:52;;;;;;;1.40;0.60;;;20.20;75.20;;;;;;5075672;28;20020;-77
2021/08/20 01:38:18;;;;;;;0.85;0.52;;;20.20;74.70;;;;;;5059850;28;20033;-77
2021/08/20 01:40:44;;;;;;;0.93;0.50;;;20.30;74.80;;;;;;5062579;28;20098;-77
2021/08/20 01:43:10;;;;;;;1.42;0.50;;;20.30;74.70;;;;;;5075792;28;20021;-77
2021/08/20 01:45:36;;;;;;;0.88;0.50;;;20.20;75.00;;;;;;5055335;28;20045;-78
2021/08/20 01:48:03;;;;;;;0.85;0.43;;;20.30;75.10;;;;;;5055435;28;20056;-77
2021/08/20 01:50:29;;;;;;;1.30;0.70;;;20.20;74.80;;;;;;5055584;28;20021;-77
2021/08/20 01:52:55;;;;;;;0.68;0.40;;;20.20;74.80;;;;;;5055138;28;20500;-77
2021/08/20 01:55:21;;;;;;;0.95;0.50;;;20.20;74.60;;;;;;5070846;28;20033;-78
2021/08/20 01:57:46;;;;;;;0.70;0.40;;;20.10;75.30;;;;;;5068091;28;20048;-77
2021/08/20 02:00:12;;;;;;;1.48;0.60;;;20.10;75.80;;;;;;5055278;28;20045;-77
2021/08/20 02:02:38;;;;;;;1.27;0.45;;;20.00;75.90;;;;;;5055304;28;20056;-77
2021/08/20 02:05:07;;;;;;;1.38;0.60;;;20.00;75.70;;;;;;5055180;28;20439;-77
2021/08/20 02:07:35;;;;;;;1.00;0.50;;;20.10;75.30;;;;;;5055104;28;20029;-77
2021/08/20 02:10:05;;;;;;;1.55;0.65;;;20.00;75.50;;;;;;5074938;28;20332;-78
2021/08/20 02:12:31;;;;;;;0.70;0.50;;;20.10;75.90;;;;;;5075395;28;20032;-77
2021/08/20 02:14:57;;;;;;;0.73;0.50;;;20.00;75.80;;;;;;5075281;28;20029;-77
2021/08/20 02:17:23;;;;;;;0.60;0.40;;;20.00;75.80;;;;;;5063860;28;20025;-78
2021/08/20 02:19:49;;;;;;;1.00;0.60;;;20.00;75.90;;;;;;5054930;28;20143;-77
2021/08/20 02:22:14;;;;;;;0.70;0.40;;;20.00;76.10;;;;;;5055184;28;20029;-77
2021/08/20 02:24:40;;;;;;;0.98;0.40;;;20.00;75.80;;;;;;5054083;28;20017;-78
2021/08/20 02:27:05;;;;;;;0.90;0.50;;;20.00;75.60;;;;;;5055044;28;20021;-77
2021/08/20 02:29:31;;;;;;;0.68;0.40;;;20.10;75.40;;;;;;5053818;28;20036;-78
2021/08/20 02:31:57;;;;;;;0.82;0.60;;;20.10;75.40;;;;;;5054614;28;20118;-78
2021/08/20 02:34:22;;;;;;;0.90;0.50;;;20.10;75.30;;;;;;5055084;28;20029;-78
2021/08/20 02:36:48;;;;;;;0.77;0.40;;;20.10;75.00;;;;;;5068577;28;20040;-77
2021/08/20 02:39:16;;;;;;;1.00;0.55;;;20.10;75.70;;;;;;5075071;28;20029;-77
2021/08/20 02:41:42;;;;;;;2.05;0.65;;;20.00;76.00;;;;;;5074514;28;20501;-77
2021/08/20 02:44:07;;;;;;;0.98;0.50;;;20.00;75.70;;;;;;5054760;28;20017;-77
2021/08/20 02:46:33;;;;;;;0.60;0.50;;;20.00;75.90;;;;;;5054885;28;20032;-77
2021/08/20 02:48:59;;;;;;;1.05;0.52;;;20.00;75.60;;;;;;5054903;28;20067;-77
2021/08/20 02:51:24;;;;;;;0.82;0.45;;;20.00;75.90;;;;;;5063233;28;20036;-77
2021/08/20 02:53:51;;;;;;;0.60;0.40;;;20.10;75.30;;;;;;5075026;28;20081;-77
2021/08/20 02:56:16;;;;;;;0.98;0.50;;;20.10;75.10;;;;;;5074820;28;20059;-77
2021/08/20 02:58:42;;;;;;;1.13;0.60;;;20.10;75.30;;;;;;5074885;28;20494;-77
2021/08/20 03:01:07;;;;;;;0.68;0.47;;;20.00;75.90;;;;;;5068841;28;20106;-77
2021/08/20 03:03:33;;;;;;;1.27;0.52;;;20.00;76.10;;;;;;5054678;28;20079;-78
2021/08/20 03:05:59;;;;;;;0.88;0.60;;;20.00;75.90;;;;;;5056759;28;20037;-77
2021/08/20 03:08:24;;;;;;;0.77;0.50;;;19.90;75.80;;;;;;5058911;28;20020;-77
2021/08/20 03:10:50;;;;;;;0.93;0.50;;;20.00;76.30;;;;;;5058280;28;20067;-78
2021/08/20 03:13:16;;;;;;;1.05;0.68;;;19.90;76.20;;;;;;5058555;28;20017;-78
2021/08/20 03:15:41;;;;;;;1.83;0.68;;;19.90;76.00;;;;;;5058435;28;20024;-78
2021/08/20 03:18:07;;;;;;;0.95;0.65;;;19.90;76.50;;;;;;5058272;28;20025;-77
2021/08/20 03:20:33;;;;;;;0.90;0.57;;;19.90;76.50;;;;;;5056828;28;20117;-78
2021/08/20 03:22:58;;;;;;;0.70;0.50;;;19.90;76.70;;;;;;5057001;28;20070;-78
2021/08/20 03:25:24;;;;;;;1.50;0.70;;;19.80;76.90;;;;;;5058142;28;20067;-78
2021/08/20 03:27:50;;;;;;;1.00;0.60;;;19.70;77.60;;;;;;5057010;28;20390;-77
2021/08/20 03:30:16;;;;;;;0.80;0.60;;;19.80;77.00;;;;;;5056875;28;20075;-77
2021/08/20 03:32:41;;;;;;;1.52;0.60;;;19.80;76.60;;;;;;5058073;28;20032;-78
2021/08/20 03:35:08;;;;;;;0.80;0.50;;;19.80;76.60;;;;;;5056930;28;20037;-78
2021/08/20 03:37:39;;;;;;;1.00;0.60;;;19.90;76.10;;;;;;5057830;28;20036;-77
2021/08/20 03:40:06;;;;;;;0.98;0.60;;;19.90;75.60;;;;;;5059592;28;20052;-77
2021/08/20 03:42:32;;;;;;;0.93;0.60;;;20.00;75.50;;;;;;5066109;28;20021;-77
2021/08/20 03:44:58;;;;;;;1.25;0.60;;;19.90;75.80;;;;;;5057956;28;20059;-77
2021/08/20 03:47:26;;;;;;;2.10;0.80;;;19.90;76.10;;;;;;5057741;28;20021;-77
2021/08/20 03:49:52;;;;;;;0.93;0.60;;;19.90;75.90;;;;;;5057853;28;20039;-78
2021/08/20 03:52:17;;;;;;;0.60;0.40;;;19.90;76.00;;;;;;5072224;28;20033;-77
2021/08/20 03:54:43;;;;;;;0.80;0.50;;;19.80;76.50;;;;;;5058132;28;20025;-77
2021/08/20 03:57:08;;;;;;;1.00;0.65;;;19.80;76.90;;;;;;5057754;28;20025;-78
2021/08/20 03:59:34;;;;;;;1.05;0.73;;;19.80;76.60;;;;;;5057492;28;20029;-78
2021/08/20 04:02:04;;;;;;;1.02;0.70;;;19.80;75.90;;;;;;5057636;28;21078;-78
2021/08/20 04:04:32;;;;;;;0.90;0.60;;;19.90;76.00;;;;;;5057498;28;20025;-77
2021/08/20 04:06:58;;;;;;;0.90;0.50;;;19.80;76.40;;;;;;5057551;28;20052;-78
2021/08/20 04:09:24;;;;;;;1.30;0.80;;;19.80;76.50;;;;;;5055959;28;20056;-77
2021/08/20 04:11:50;;;;;;;1.02;0.65;;;19.80;77.00;;;;;;5072771;28;20059;-77
2021/08/20 04:14:16;;;;;;;1.50;0.82;;;19.80;76.70;;;;;;5057798;28;20033;-77
2021/08/20 04:16:42;;;;;;;1.50;0.60;;;19.80;76.70;;;;;;5057126;28;20032;-78
2021/08/20 04:19:08;;;;;;;1.20;0.70;;;19.80;76.30;;;;;;5055776;28;20029;-78
2021/08/20 04:21:38;;;;;;;1.15;0.50;;;19.80;76.80;;;;;;5057240;28;20105;-77
2021/08/20 04:24:05;;;;;;;0.70;0.40;;;19.80;76.70;;;;;;5057310;28;20028;-78
2021/08/20 04:26:31;;;;;;;0.90;0.60;;;19.80;77.20;;;;;;5056951;28;20179;-77
2021/08/20 04:28:57;;;;;;;1.30;0.70;;;19.80;76.70;;;;;;5057270;28;20061;-77
2021/08/20 04:31:22;;;;;;;0.90;0.63;;;19.80;77.00;;;;;;5057063;28;20032;-78
2021/08/20 04:33:48;;;;;;;1.13;0.70;;;19.80;77.00;;;;;;5056816;28;20577;-77
2021/08/20 04:36:13;;;;;;;1.20;0.60;;;19.80;77.00;;;;;;5057000;28;20108;-78
2021/08/20 04:38:43;;;;;;;1.25;0.70;;;19.80;77.20;;;;;;5056864;28;20059;-77
2021/08/20 04:41:09;;;;;;;1.38;0.90;;;19.80;77.20;;;;;;5067305;28;20020;-78
2021/08/20 04:43:38;;;;;;;0.80;0.50;;;19.80;77.20;;;;;;5060328;28;20031;-77
2021/08/20 04:46:04;;;;;;;2.50;0.80;;;19.70;77.80;;;;;;5056846;28;20076;-77
2021/08/20 04:48:30;;;;;;;1.20;0.73;;;19.80;77.30;;;;;;5056604;28;20028;-77
2021/08/20 04:50:57;;;;;;;1.00;0.70;;;19.80;77.20;;;;;;5056473;28;20025;-78
2021/08/20 04:53:27;;;;;;;1.88;0.90;;;19.70;77.50;;;;;;5056740;28;20044;-78
2021/08/20 04:55:53;;;;;;;;;;;19.70;77.90;;;;;;5072397;28;20054;-78
2021/08/20 04:58:18;;;;;;;1.08;0.75;;;19.70;77.60;;;;;;5055295;28;20446;-77
2021/08/20 05:00:46;;;;;;;0.82;0.47;;;19.70;77.70;;;;;;5056406;28;20037;-77
2021/08/20 05:03:13;;;;;;;0.90;0.60;;;19.70;77.80;;;;;;5056311;28;20033;-77
2021/08/20 05:05:41;;;;;;;1.30;0.90;;;19.70;77.40;;;;;;5056459;28;20080;-78
2021/08/20 05:08:07;;;;;;;1.08;0.75;;;19.80;76.80;;;;;;5068614;28;20032;-77
2021/08/20 05:10:33;;;;;;;0.93;0.55;;;19.70;77.00;;;;;;5075987;28;20025;-78
2021/08/20 05:12:59;;;;;;;1.20;0.70;;;19.80;77.10;;;;;;5076271;28;20479;-78
2021/08/20 05:15:27;;;;;;;1.00;0.70;;;19.80;77.00;;;;;;5070556;28;20082;-78
2021/08/20 05:17:53;;;;;;;1.13;0.77;;;19.80;77.10;;;;;;5056031;28;20545;-78
2021/08/20 05:20:19;;;;;;;1.10;0.60;;;19.80;77.10;;;;;;5056336;28;20033;-77
2021/08/20 05:22:48;;;;;;;0.90;0.60;;;19.70;77.00;;;;;;5067871;28;20911;-77
2021/08/20 05:25:15;;;;;;;1.85;0.80;;;19.70;77.50;;;;;;5076073;28;20020;-78
2021/08/20 05:27:41;;;;;;;1.13;0.80;;;19.70;77.40;;;;;;5064905;28;20044;-78
2021/08/20 05:30:10;;;;;;;1.40;0.98;;;19.80;77.20;;;;;;5056000;28;20025;-78
2021/08/20 05:32:36;;;;;;;1.37;1.10;;;19.80;77.20;;;;;;5055545;28;20033;-78
2021/08/20 05:35:03;;;;;;;2.35;1.00;;;19.80;77.00;;;;;;5058818;28;20287;-78
2021/08/20 05:37:29;;;;;;;1.60;0.90;;;19.80;76.90;;;;;;5075807;28;20074;-78
2021/08/20 05:39:55;;;;;;;1.88;0.80;;;19.80;76.90;;;;;;5074189;28;20029;-78
2021/08/20 05:42:20;;;;;;;2.10;0.88;;;19.80;77.00;;;;;;5074613;28;20025;-77
2021/08/20 05:44:46;;;;;;;1.23;0.82;;;19.80;77.20;;;;;;5075480;28;20110;-78
2021/08/20 05:47:12;;;;;;;1.08;0.73;;;19.80;76.90;;;;;;5072177;28;20456;-78
2021/08/20 05:49:38;;;;;;;1.30;1.02;;;19.80;77.10;;;;;;5055415;28;20036;-78
2021/08/20 05:52:04;;;;;;;1.63;1.10;;;19.80;77.00;;;;;;5063039;28;20024;-77
2021/08/20 05:54:29;;;;;;;2.92;1.25;;;19.80;77.60;;;;;;5075703;28;20031;-78
2021/08/20 05:56:55;;;;;;;1.42;1.00;;;19.80;77.30;;;;;;5071901;28;20602;-77
2021/08/20 05:59:21;;;;;;;2.58;1.00;;;19.80;78.00;;;;;;5055490;28;20131;-78
2021/08/20 06:01:46;;;;;;;1.80;1.10;;;19.80;77.70;;;;;;5055229;28;20017;-78
2021/08/20 06:04:12;;;;;;;1.50;0.98;;;19.80;77.80;;;;;;5055343;28;20025;-78
2021/08/20 06:06:39;;;;;;;1.70;0.90;;;19.80;77.10;;;;;;5055431;28;20017;-78
2021/08/20 06:09:05;;;;;;;1.40;0.90;;;19.80;77.00;;;;;;5063406;28;20039;-78
2021/08/20 06:11:32;;;;;;;1.40;1.08;;;19.80;77.00;;;;;;5059966;28;20511;-78
2021/08/20 06:13:58;;;;;;;1.80;1.10;;;19.90;77.60;;;;;;5062413;28;20064;-78
2021/08/20 06:16:24;;;;;;;1.23;0.90;;;19.80;77.80;;;;;;5061171;28;20650;-79
2021/08/20 06:18:51;;;;;;;1.80;1.05;;;19.80;77.60;;;;;;5061220;28;20054;-80
2021/08/20 06:21:17;;;;;;;1.70;1.10;;;19.90;77.30;;;;;;5058777;28;20062;-80
2021/08/20 06:23:43;;;;;;;2.05;1.23;;;19.90;77.40;;;;;;5062562;28;20032;-79
2021/08/20 06:26:09;;;;;;;2.35;1.17;;;19.90;77.10;;;;;;5062403;28;20024;-81
2021/08/20 06:28:34;;;;;;;5.28;1.45;;;20.00;76.70;;;;;;5061951;28;20024;-80
2021/08/20 06:31:04;;;;;;;2.28;1.35;;;20.20;76.90;;;;;;5062546;28;20056;-80
2021/08/20 06:33:30;;;;;;;1.83;1.40;;;20.20;76.40;;;;;;5063919;28;20053;-80
2021/08/20 06:35:56;;;;;;;1.50;0.88;;;20.30;76.50;;;;;;5053886;28;20031;-84
2021/08/20 06:38:22;;;;;;;2.85;1.20;;;20.30;76.30;;;;;;5054283;28;20099;-81
2021/08/20 06:40:47;;;;;;;1.50;1.10;;;20.30;76.00;;;;;;5063666;28;20020;-80
2021/08/20 06:43:13;;;;;;;2.85;1.20;;;20.40;75.70;;;;;;5077013;28;20372;-83
2021/08/20 06:45:39;;;;;;;2.03;1.30;;;20.40;75.70;;;;;;5078266;28;20055;-81
2021/08/20 06:48:04;;;;;;;1.80;0.98;;;20.50;75.60;;;;;;5078224;28;20031;-83
2021/08/20 06:50:30;;;;;;;1.70;1.10;;;20.50;75.30;;;;;;5077610;28;20567;-86
2021/08/20 06:52:56;;;;;;;1.77;1.10;;;20.60;75.10;;;;;;5072889;28;20067;-82
2021/08/20 06:55:22;;;;;;;2.05;1.17;;;20.70;75.00;;;;;;5070626;28;20190;-82
2021/08/20 06:57:48;;;;;;;1.50;1.17;;;20.70;75.00;;;;;;5067183;28;20021;-82
2021/08/20 07:00:14;;;;;;;1.55;1.20;;;20.80;75.00;;;;;;5073495;28;20077;-80
2021/08/20 07:02:46;;;;;;;1.70;1.30;;;20.80;75.20;;;;;;5078179;28;20032;-88
2021/08/20 07:05:14;;;;;;;1.58;0.93;;;20.80;74.90;;;;;;5075417;28;20032;-84
2021/08/20 07:07:41;;;;;;;1.92;1.20;;;20.80;74.80;;;;;;5075120;28;20107;-91
2021/08/20 07:10:14;;;;;;;1.40;0.93;;;20.80;74.50;;;;;;5070297;28;20124;-88
2021/08/20 07:12:40;;;;;;;1.70;1.15;;;20.90;74.30;;;;;;5075224;28;20032;-85
2021/08/20 07:15:08;;;;;;;1.20;0.93;;;21.00;74.30;;;;;;5070956;28;20035;-88
2021/08/20 07:17:34;;;;;;;1.77;1.00;;;21.00;74.10;;;;;;5066502;28;20033;-82
2021/08/20 07:20:00;;;;;;;1.30;0.95;;;21.00;74.50;;;;;;5067524;28;20470;-79
2021/08/20 07:22:26;;;;;;;1.80;1.02;;;21.10;73.70;;;;;;5063457;28;20028;-85
2021/08/20 07:24:52;;;;;;;1.88;1.00;;;21.10;73.80;;;;;;5063691;28;20051;-83
2021/08/20 07:27:19;;;;;;;1.15;0.88;;;21.10;73.80;;;;;;5068465;28;20020;-84
2021/08/20 07:29:44;;;;;;;1.23;0.90;;;21.20;73.80;;;;;;5070505;28;20055;-84
2021/08/20 07:32:10;;;;;;;1.20;0.93;;;21.20;73.60;;;;;;5066825;28;20143;-84
2021/08/20 07:34:36;;;;;;;2.25;1.20;;;21.30;73.60;;;;;;5069026;28;20032;-84
2021/08/20 07:37:02;;;;;;;1.30;0.90;;;21.30;73.50;;;;;;5066214;28;20033;-83
2021/08/20 07:39:29;;;;;;;1.52;0.95;;;21.30;73.20;;;;;;5065639;28;20039;-84
2021/08/20 07:41:55;;;;;;;1.63;0.90;;;21.30;73.00;;;;;;5062982;28;20025;-84
2021/08/20 07:44:20;;;;;;;1.38;0.82;;;21.40;72.80;;;;;;5061603;28;20060;-84
2021/08/20 07:46:46;;;;;;;1.30;0.80;;;21.40;72.60;;;;;;5062621;28;20020;-84
2021/08/20 07:49:12;;;;;;;1.65;0.85;;;21.40;73.10;;;;;;5073883;28;20833;-83
2021/08/20 07:51:38;;;;;;;2.00;0.93;;;21.40;73.00;;;;;;5077090;28;20073;-83
2021/08/20 07:54:04;;;;;;;2.17;0.98;;;21.60;72.90;;;;;;5071727;28;20052;-84
2021/08/20 07:56:30;;;;;;;2.90;1.10;;;21.70;72.30;;;;;;5057619;28;20024;-84
2021/08/20 07:58:55;;;;;;;1.58;0.90;;;21.80;72.60;;;;;;5071424;28;20037;-84
2021/08/20 08:01:21;;;;;;;1.20;0.75;;;21.80;72.30;;;;;;5069535;28;20080;-84
2021/08/20 08:03:46;;;;;;;2.88;1.10;;;22.00;71.90;;;;;;5067661;28;20025;-84
2021/08/20 08:06:12;;;;;;;1.40;0.80;;;21.90;71.30;;;;;;5056770;28;20025;-83
2021/08/20 08:08:41;;;;;;;2.08;1.10;;;22.10;71.30;;;;;;5058622;28;20096;-83
2021/08/20 08:11:08;;;;;;;2.42;1.10;;;22.10;71.00;;;;;;5063651;28;20025;-84
2021/08/20 08:13:33;;;;;;;1.80;1.00;;;22.10;71.10;;;;;;5066089;28;20020;-84
2021/08/20 08:15:59;;;;;;;1.60;1.10;;;22.10;70.90;;;;;;5071026;28;20044;-85
2021/08/20 08:18:25;;;;;;;1.15;0.80;;;22.00;70.90;;;;;;5059137;28;20085;-84
2021/08/20 08:21:11;;;;;;;2.03;1.00;;;22.10;70.80;;;;;;5074700;28;20161;-89
2021/08/20 08:23:38;;;;;;;1.60;0.90;;;22.20;70.70;;;;;;5061975;28;20033;-88
2021/08/20 08:26:07;;;;;;;2.42;1.00;;;22.30;70.20;;;;;;5073484;28;20376;-88
2021/08/20 08:28:32;;;;;;;1.30;0.80;;;22.40;70.00;;;;;;5075592;28;20050;-89
2021/08/20 08:31:02;;;;;;;1.15;0.80;;;22.30;69.90;;;;;;5064582;28;20028;-87
2021/08/20 08:33:28;;;;;;;1.77;0.90;;;22.00;70.20;;;;;;5068346;28;20443;-92
2021/08/20 08:35:53;;;;;;;1.98;0.85;;;22.00;70.40;;;;;;5072042;28;20059;-91
2021/08/20 08:38:19;;;;;;;1.23;0.70;;;22.00;70.60;;;;;;5074895;28;20103;-89
2021/08/20 08:40:46;;;;;;;1.48;0.88;;;22.20;70.70;;;;;;5077171;28;20012;-91
2021/08/20 08:43:13;;;;;;;1.40;0.85;;;22.30;70.40;;;;;;5061162;28;20024;-91
2021/08/20 08:45:40;;;;;;;1.38;0.82;;;22.40;69.70;;;;;;5058987;28;20040;-92
2021/08/20 08:48:09;;;;;;;1.00;0.70;;;22.40;69.30;;;;;;5070498;28;20025;-91
2021/08/20 08:50:35;;;;;;;1.33;0.80;;;22.40;69.10;;;;;;5074883;28;20031;-90
2021/08/20 08:53:02;;;;;;;1.27;0.77;;;22.60;69.20;;;;;;5061148;28;20029;-91
2021/08/20 08:55:28;;;;;;;2.28;1.10;;;22.60;68.10;;;;;;5062384;28;20112;-90
2021/08/20 08:57:54;;;;;;;1.55;0.80;;;22.70;68.60;;;;;;5069990;28;20067;-89
2021/08/20 09:00:32;;;;;;;1.80;0.80;;;22.80;67.40;;;;;;5067814;28;20056;-77
2021/08/20 09:02:59;;;;;;;1.92;0.77;;;22.80;67.30;;;;;;5070194;28;20044;-86
2021/08/20 09:05:25;;;;;;;2.00;0.80;;;22.90;68.00;;;;;;5061579;28;20021;-76
2021/08/20 09:07:54;;;;;;;0.77;0.50;;;22.90;67.80;;;;;;5067296;28;20048;-78
2021/08/20 09:10:25;;;;;;;2.03;0.90;;;22.90;67.30;;;;;;5075012;28;20074;-87
2021/08/20 09:12:57;;;;;;;1.40;0.80;;;22.90;67.30;;;;;;5062517;28;20020;-88
2021/08/20 09:15:29;;;;;;;1.70;0.80;;;23.10;67.60;;;;;;5062692;28;20028;-89
2021/08/20 09:18:02;;;;;;;0.98;0.70;;;23.10;66.60;;;;;;5054865;28;20079;-87
2021/08/20 09:20:28;;;;;;;1.48;0.60;;;23.10;66.50;;;;;;5071121;28;20231;-88
2021/08/20 09:22:59;;;;;;;1.65;0.70;;;23.30;66.70;;;;;;5070009;28;20024;-81
2021/08/20 09:25:40;;;;;;;1.13;0.75;;;23.40;66.60;;;;;;5062791;28;20029;-85
2021/08/20 09:28:16;;;;;;;1.55;0.90;;;23.60;65.30;;;;;;5069222;28;20067;-85
2021/08/20 09:30:44;;;;;;;1.88;0.80;;;23.40;64.20;;;;;;5071916;28;20456;-89
2021/08/20 09:33:16;;;;;;;1.40;0.70;;;23.40;65.10;;;;;;5063448;28;20033;-83
2021/08/20 09:35:42;;;;;;;0.80;0.60;;;23.50;65.50;;;;;;5059947;28;20058;-81
2021/08/20 09:38:13;;;;;;;1.02;0.65;;;23.40;64.50;;;;;;5071700;28;20111;-87
2021/08/20 09:40:49;;;;;;;2.83;0.90;;;23.30;65.10;;;;;;5060750;28;20450;-89
2021/08/20 09:43:24;;;;;;;1.10;0.65;;;23.40;65.20;;;;;;5069540;28;20032;-85
2021/08/20 09:46:06;;;;;;;1.10;0.70;;;23.40;65.30;;;;;;5067824;28;20043;-86
2021/08/20 09:48:48;;;;;;;0.98;0.57;;;23.30;65.80;;;;;;5074961;28;20028;-85
2021/08/20 09:51:44;;;;;;;1.25;0.57;;;23.50;66.00;;;;;;5071730;28;20101;-87
2021/08/20 09:54:24;;;;;;;1.10;0.75;;;23.70;65.40;;;;;;5046669;28;20060;-87
2021/08/20 09:56:50;;;;;;;1.00;0.68;;;23.80;63.60;;;;;;5067293;28;20028;-85
2021/08/20 09:59:16;;;;;;;1.10;0.57;;;23.80;62.40;;;;;;5073467;28;20487;-86
2021/08/20 10:01:45;;;;;;;1.13;0.70;;;23.80;63.10;;;;;;5072295;28;20017;-86
2021/08/20 10:04:12;;;;;;;0.88;0.63;;;23.90;63.90;;;;;;5061944;28;20036;-86
2021/08/20 10:06:45;;;;;;;1.10;0.70;;;24.00;63.10;;;;;;5066366;28;20095;-87
2021/08/20 10:09:15;;;;;;;1.00;0.63;;;24.10;61.20;;;;;;5068198;28;20028;-87
2021/08/20 10:11:49;;;;;;;1.13;0.52;;;24.10;61.60;;;;;;5075157;28;20483;-87
2021/08/20 10:14:17;;;;;;;1.42;0.60;;;24.20;61.80;;;;;;5071585;28;20494;-85
2021/08/20 10:16:43;;;;;;;0.88;0.50;;;24.10;63.10;;;;;;5075231;28;20021;-87
2021/08/20 10:19:10;;;;;;;0.85;0.60;;;24.10;63.60;;;;;;5063754;28;20036;-86
2021/08/20 10:21:41;;;;;;;0.95;0.60;;;24.40;62.50;;;;;;5069540;28;20028;-86
2021/08/20 10:24:08;;;;;;;1.10;0.60;;;24.50;61.00;;;;;;5062350;28;20087;-87
2021/08/20 10:26:48;;;;;;;0.93;0.55;;;24.70;61.70;;;;;;5061068;28;20103;-87
2021/08/20 10:29:15;;;;;;;0.90;0.40;;;25.10;60.70;;;;;;5075160;28;20475;-86
2021/08/20 10:31:42;;;;;;;0.70;0.40;;;25.00;60.00;;;;;;5058184;28;20055;-85
2021/08/20 10:34:29;;;;;;;1.00;0.57;;;24.90;59.50;;;;;;5073464;28;20119;-85
2021/08/20 10:37:14;;;;;;;1.50;0.40;;;24.90;59.40;;;;;;5074787;28;20021;-85
2021/08/20 10:39:43;;;;;;;0.80;0.50;;;24.80;57.70;;;;;;5064793;28;20124;-86
2021/08/20 10:42:17;;;;;;;0.60;0.40;;;24.80;58.90;;;;;;5072536;28;20525;-87
2021/08/20 10:44:45;;;;;;;0.98;0.50;;;24.80;58.40;;;;;;5069732;28;20040;-85
2021/08/20 10:47:27;;;;;;;1.67;0.47;;;24.70;59.00;;;;;;5074756;28;20108;-86
2021/08/20 10:50:13;;;;;;;0.73;0.40;;;24.50;58.50;;;;;;5072647;28;20093;-86
2021/08/20 10:52:44;;;;;;;1.40;0.45;;;24.80;58.90;;;;;;5064157;28;20396;-87
2021/08/20 10:55:14;;;;;;;1.02;0.50;;;24.80;58.30;;;;;;5074641;28;20078;-86
2021/08/20 10:57:39;;;;;;;1.00;0.70;;;25.00;57.60;;;;;;5069470;28;20034;-86
2021/08/20 11:00:20;;;;;;;1.25;0.70;;;25.30;58.10;;;;;;5075097;28;20764;-87
2021/08/20 11:02:50;;;;;;;1.80;0.60;;;25.50;56.90;;;;;;5056711;28;20078;-86
2021/08/20 11:05:16;;;;;;;0.70;0.30;;;25.70;56.90;;;;;;5073345;28;20032;-87
2021/08/20 11:07:42;;;;;;;0.75;0.30;;;25.70;55.00;;;;;;5074932;28;20024;-85
2021/08/20 11:10:08;;;;;;;0.85;0.55;;;25.50;55.90;;;;;;5070749;28;20037;-86
2021/08/20 11:12:54;;;;;;;1.17;0.60;;;25.30;56.70;;;;;;5074348;28;20027;-87
2021/08/20 11:15:30;;;;;;;1.30;0.70;;;25.30;55.70;;;;;;5056989;28;20517;-87
2021/08/20 11:18:04;;;;;;;1.23;0.63;;;25.10;56.50;;;;;;5074777;28;20074;-86
2021/08/20 11:20:39;;;;;;;1.17;0.65;;;25.00;57.30;;;;;;5070975;28;20395;-87
2021/08/20 11:23:05;;;;;;;1.02;0.50;;;24.90;57.00;;;;;;5073240;28;20017;-86
2021/08/20 11:25:40;;;;;;;0.80;0.43;;;24.80;58.00;;;;;;5070234;28;20033;-86
2021/08/20 11:28:22;;;;;;;1.35;0.50;;;24.80;58.30;;;;;;5072836;28;20020;-86
2021/08/20 11:31:04;;;;;;;1.33;0.50;;;24.80;57.90;;;;;;5068506;28;20063;-86
2021/08/20 11:33:39;;;;;;;0.77;0.45;;;24.80;57.50;;;;;;5074716;28;20390;-86
2021/08/20 11:36:14;;;;;;;1.88;0.65;;;24.60;57.70;;;;;;5077781;28;20465;-85
2021/08/20 11:38:48;;;;;;;1.08;0.68;;;24.60;58.60;;;;;;5070552;28;20032;-86
2021/08/20 11:41:25;;;;;;;1.02;0.40;;;24.70;58.70;;;;;;5075607;28;20031;-86
2021/08/20 11:44:01;;;;;;;0.50;0.30;;;24.80;57.10;;;;;;5077796;28;20628;-84
2021/08/20 11:46:29;;;;;;;1.40;0.50;;;24.90;54.20;;;;;;5074161;28;20037;-84
2021/08/20 11:48:57;;;;;;;0.85;0.50;;;25.20;53.80;;;;;;5074104;28;20025;-81
2021/08/20 11:51:28;;;;;;;1.52;0.50;;;25.30;55.00;;;;;;5071482;28;20024;-88
2021/08/20 11:53:55;;;;;;;1.10;0.60;;;25.60;54.00;;;;;;5076451;28;20067;-85
2021/08/20 11:56:20;;;;;;;0.70;0.30;;;25.70;53.10;;;;;;5070658;28;20063;-84
2021/08/20 11:58:46;;;;;;;0.40;0.20;;;25.50;53.90;;;;;;5076797;28;20016;-87
2021/08/20 12:01:27;;;;;;;0.50;0.20;;;25.40;52.00;;;;;;5076939;28;20111;-89
2021/08/20 12:03:56;;;;;;;0.40;0.20;;;25.10;53.20;;;;;;5077021;28;20020;-89
2021/08/20 12:06:23;;;;;;;0.63;0.30;;;25.30;54.80;;;;;;5066816;28;20405;-86
2021/08/20 12:08:49;;;;;;;0.32;0.20;;;25.70;54.50;;;;;;5066868;28;20588;-81
2021/08/20 12:11:21;;;;;;;0.95;0.50;;;25.80;53.70;;;;;;5072136;28;20020;-89
2021/08/20 12:13:52;;;;;;;0.60;0.20;;;25.80;53.20;;;;;;5065662;28;20028;-89
2021/08/20 12:16:39;;;;;;;0.70;0.30;;;25.80;53.60;;;;;;5062977;28;20051;-87
2021/08/20 12:19:17;;;;;;;0.70;0.35;;;25.50;53.60;;;;;;5062526;28;20501;-90
2021/08/20 12:21:46;;;;;;;0.65;0.30;;;25.50;53.80;;;;;;5067285;28;20036;-89
2021/08/20 12:24:13;;;;;;;0.20;0.13;;;25.30;52.40;;;;;;5056415;28;20043;-88
2021/08/20 12:26:39;;;;;;;1.55;0.30;;;25.40;52.00;;;;;;5057497;28;20438;-79
2021/08/20 12:29:19;;;;;;;0.50;0.25;;;25.30;52.10;;;;;;5065655;28;20038;-84
2021/08/20 12:31:58;;;;;;;0.30;0.20;;;25.70;51.50;;;;;;5071918;28;20515;-90
2021/08/20 12:34:32;;;;;;;0.47;0.20;;;25.90;52.00;;;;;;5064008;28;20142;-90
2021/08/20 12:37:00;;;;;;;0.50;0.10;;;25.90;50.90;;;;;;5067885;28;20032;-89
2021/08/20 12:39:39;;;;;;;0.95;0.30;;;25.90;49.50;;;;;;5065703;28;20024;-79
2021/08/20 12:42:23;;;;;;;0.47;0.20;;;26.10;48.20;;;;;;5069230;28;20027;-83
2021/08/20 12:45:12;;;;;;;0.55;0.20;;;26.10;49.90;;;;;;5068813;28;20274;-92
2021/08/20 12:47:39;;;;;;;0.50;0.20;;;26.30;49.20;;;;;;5076549;28;20047;-89
2021/08/20 12:50:10;;;;;;;0.52;0.10;;;26.10;49.80;;;;;;5065270;28;20033;-90
2021/08/20 12:52:36;;;;;;;0.80;0.28;;;26.30;49.30;;;;;;5055277;28;20051;-85
2021/08/20 12:55:26;;;;;;;0.40;0.20;;;26.50;49.80;;;;;;5055307;28;20025;-89